createdAt,value
2023-01-29T00:00:46.359Z,101109.59
2023-01-29T00:03:51.457Z,101115.09
2023-01-29T00:06:53.237Z,101117.19
2023-01-29T00:09:55.478Z,101114.69
2023-01-29T00:12:59.129Z,101112.63
2023-01-29T00:16:02.689Z,101116.16
2023-01-29T00:19:04.533Z,101117.84
2023-01-29T00:22:06.241Z,101111.16
2023-01-29T00:25:09.856Z,101120.69
2023-01-29T00:28:12.744Z,101121.06
2023-01-29T00:31:19.796Z,101123.50
2023-01-29T00:34:23.091Z,101129.31
2023-01-29T00:37:27.841Z,101120.78
2023-01-29T00:40:49.482Z,101123.41
2023-01-29T00:44:09.981Z,101127.00
2023-01-29T00:47:30.325Z,101132.78
2023-01-29T00:50:32.332Z,101131.63
2023-01-29T00:53:34.072Z,101128.31
2023-01-29T00:56:37.291Z,101138.13
2023-01-29T00:59:38.995Z,101137.94
2023-01-29T01:02:59.479Z,101129.31
2023-01-29T01:06:10.009Z,101138.59
2023-01-29T01:09:30.415Z,101143.78
2023-01-29T01:12:32.761Z,101139.59
2023-01-29T01:15:36.627Z,101142.34
2023-01-29T01:18:38.663Z,101131.59
2023-01-29T01:21:40.659Z,101136.97
2023-01-29T01:24:42.396Z,101136.25
2023-01-29T01:27:44.337Z,101142.06
2023-01-29T01:30:46.516Z,101144.72
2023-01-29T01:33:48.469Z,101146.94
2023-01-29T01:36:50.206Z,101146.66
2023-01-29T01:39:52.017Z,101152.50
2023-01-29T01:42:56.775Z,101151.44
2023-01-29T01:45:58.466Z,101146.16
2023-01-29T01:49:15.900Z,101148.31
2023-01-29T01:52:19.762Z,101161.50
2023-01-29T01:55:26.368Z,101163.63
2023-01-29T01:58:33.975Z,101164.44
2023-01-29T02:01:35.986Z,101163.94
2023-01-29T02:05:06.517Z,101171.44
2023-01-29T02:08:27.691Z,101171.19
2023-01-29T02:11:30.476Z,101184.47
2023-01-29T02:14:39.599Z,101180.47
2023-01-29T02:17:41.647Z,101190.75
2023-01-29T02:21:03.022Z,101188.94
2023-01-29T02:24:26.092Z,101190.47
2023-01-29T02:27:49.151Z,101185.53
2023-01-29T02:31:04.383Z,101188.38
2023-01-29T02:34:20.660Z,101183.66
2023-01-29T02:37:44.291Z,101185.97
2023-01-29T02:40:54.236Z,101180.19
2023-01-29T02:44:12.713Z,101181.34
2023-01-29T02:47:31.074Z,101186.44
2023-01-29T02:50:41.775Z,101181.59
2023-01-29T02:53:58.608Z,101183.28
2023-01-29T02:57:32.578Z,101196.34
2023-01-29T03:00:39.745Z,101192.75
2023-01-29T03:03:46.041Z,101199.03
2023-01-29T03:06:58.515Z,101201.03
2023-01-29T03:10:03.326Z,101208.34
2023-01-29T03:13:26.491Z,101217.88
2023-01-29T03:16:36.944Z,101222.22
2023-01-29T03:19:44.142Z,101219.00
2023-01-29T03:22:52.404Z,101229.75
2023-01-29T03:26:17.800Z,101227.84
2023-01-29T03:29:39.036Z,101232.09
2023-01-29T03:32:43.025Z,101226.28
2023-01-29T03:35:59.316Z,101231.28
2023-01-29T03:39:01.077Z,101223.59
2023-01-29T03:42:21.178Z,101228.25
2023-01-29T03:45:43.772Z,101231.31
2023-01-29T03:49:01.399Z,101221.84
2023-01-29T03:52:15.731Z,101222.84
2023-01-29T03:55:24.900Z,101226.47
2023-01-29T03:58:54.661Z,101231.50
2023-01-29T04:02:00.292Z,101234.69
2023-01-29T04:05:14.872Z,101236.72
2023-01-29T04:08:27.879Z,101246.91
2023-01-29T04:11:31.182Z,101244.47
2023-01-29T04:14:33.216Z,101252.84
2023-01-29T04:17:39.811Z,101250.41
2023-01-29T04:20:42.147Z,101240.75
2023-01-29T04:23:44.944Z,101240.25
2023-01-29T04:26:46.632Z,101236.16
2023-01-29T04:30:04.720Z,101237.56
2023-01-29T04:33:06.217Z,101235.38
2023-01-29T04:36:20.061Z,101238.44
2023-01-29T04:39:32.848Z,101238.34
2023-01-29T04:42:44.322Z,101243.22
2023-01-29T04:45:54.808Z,101235.12
2023-01-29T04:49:05.365Z,101229.56
2023-01-29T04:52:24.451Z,101231.38
2023-01-29T04:55:49.423Z,101230.47
2023-01-29T04:58:57.251Z,101232.78
2023-01-29T05:02:02.383Z,101214.16
2023-01-29T05:05:06.230Z,101221.13
2023-01-29T05:08:09.211Z,101220.22
2023-01-29T05:11:11.705Z,101219.84
2023-01-29T05:14:17.083Z,101223.56
2023-01-29T05:17:20.747Z,101228.03
2023-01-29T05:20:22.520Z,101225.22
2023-01-29T05:23:24.534Z,101232.44
2023-01-29T05:26:45.982Z,101238.44
2023-01-29T05:29:47.977Z,101240.13
2023-01-29T05:32:49.695Z,101238.16
2023-01-29T05:35:51.431Z,101240.37
2023-01-29T05:38:53.108Z,101234.19
2023-01-29T05:41:55.019Z,101239.06
2023-01-29T05:44:57.847Z,101245.75
2023-01-29T05:48:00.437Z,101241.91
2023-01-29T05:51:05.610Z,101237.28
2023-01-29T05:54:07.260Z,101236.00
2023-01-29T05:57:09.029Z,101236.16
2023-01-29T06:00:13.180Z,101233.69
2023-01-29T06:03:15.121Z,101237.28
2023-01-29T06:06:17.389Z,101235.25
2023-01-29T06:09:19.158Z,101230.88
2023-01-29T06:12:21.040Z,101229.22
2023-01-29T06:15:22.777Z,101224.19
2023-01-29T06:18:24.656Z,101236.00
2023-01-29T06:21:26.324Z,101235.25
2023-01-29T06:24:28.018Z,101236.66
2023-01-29T06:27:29.828Z,101247.44
2023-01-29T06:30:31.998Z,101248.81
2023-01-29T06:33:34.127Z,101249.50
2023-01-29T06:36:36.107Z,101261.13
2023-01-29T06:39:37.787Z,101262.84
2023-01-29T06:42:39.409Z,101266.44
2023-01-29T06:45:55.263Z,101282.91
2023-01-29T06:49:02.603Z,101276.59
2023-01-29T06:52:04.432Z,101293.94
2023-01-29T06:55:06.615Z,101289.56
2023-01-29T06:58:10.192Z,101302.38
2023-01-29T07:01:17.509Z,101299.03
2023-01-29T07:04:31.016Z,101308.56
2023-01-29T07:07:35.847Z,101309.16
2023-01-29T07:10:37.596Z,101307.50
2023-01-29T07:13:39.322Z,101304.34
2023-01-29T07:16:41.105Z,101310.06
2023-01-29T07:19:42.854Z,101303.72
2023-01-29T07:22:45.587Z,101305.59
2023-01-29T07:25:49.952Z,101293.22
2023-01-29T07:28:52.664Z,101297.34
2023-01-29T07:31:54.550Z,101305.03
2023-01-29T07:34:56.399Z,101286.62
2023-01-29T07:37:58.342Z,101285.84
2023-01-29T07:41:01.365Z,101278.13
2023-01-29T07:44:04.799Z,101272.62
2023-01-29T07:47:06.505Z,101268.50
2023-01-29T07:50:08.773Z,101260.53
2023-01-29T07:53:16.564Z,101265.56
2023-01-29T07:56:18.339Z,101281.56
2023-01-29T07:59:20.106Z,101278.78
2023-01-29T08:02:22.848Z,101274.94
2023-01-29T08:05:27.740Z,101280.44
2023-01-29T08:08:30.716Z,101288.03
2023-01-29T08:11:33.449Z,101279.69
2023-01-29T08:14:36.405Z,101288.28
2023-01-29T08:17:52.542Z,101289.28
2023-01-29T08:21:00.930Z,101288.53
2023-01-29T08:24:03.848Z,101279.66
2023-01-29T08:27:05.563Z,101279.94
2023-01-29T08:30:08.612Z,101282.09
2023-01-29T08:33:10.453Z,101278.66
2023-01-29T08:36:12.204Z,101280.66
2023-01-29T08:39:13.985Z,101277.19
2023-01-29T08:42:15.758Z,101282.75
2023-01-29T08:45:17.513Z,101288.28
2023-01-29T08:48:19.386Z,101280.66
2023-01-29T08:51:22.543Z,101282.72
2023-01-29T08:54:25.266Z,101299.16
2023-01-29T08:57:28.998Z,101299.44
2023-01-29T09:00:31.157Z,101310.97
2023-01-29T09:03:32.910Z,101315.97
2023-01-29T09:06:42.612Z,101319.53
2023-01-29T09:09:44.288Z,101318.41
2023-01-29T09:12:47.056Z,101322.78
2023-01-29T09:15:48.721Z,101334.69
2023-01-29T09:18:53.455Z,101331.84
2023-01-29T09:21:56.324Z,101329.66
2023-01-29T09:24:58.091Z,101331.69
2023-01-29T09:27:59.813Z,101340.34
2023-01-29T09:31:03.131Z,101333.31
2023-01-29T09:34:05.093Z,101333.47
2023-01-29T09:37:06.859Z,101331.44
2023-01-29T09:40:30.703Z,101327.72
2023-01-29T09:43:51.140Z,101330.53
2023-01-29T09:46:55.773Z,101330.88
2023-01-29T09:50:00.035Z,101330.62
2023-01-29T09:53:11.418Z,101333.50
2023-01-29T09:56:20.007Z,101340.66
2023-01-29T09:59:24.849Z,101340.81
2023-01-29T10:02:35.298Z,101343.47
2023-01-29T10:05:56.224Z,101339.25
2023-01-29T10:09:10.013Z,101341.16
2023-01-29T10:12:24.965Z,101339.03
2023-01-29T10:15:52.332Z,101340.44
2023-01-29T10:18:56.848Z,101351.63
2023-01-29T10:22:14.022Z,101340.56
2023-01-29T10:25:20.262Z,101341.72
2023-01-29T10:28:46.500Z,101335.44
2023-01-29T10:31:55.098Z,101335.97
2023-01-29T10:35:02.666Z,101328.47
2023-01-29T10:38:13.705Z,101333.47
2023-01-29T10:41:30.269Z,101320.78
2023-01-29T10:44:54.091Z,101315.50
2023-01-29T10:48:26.466Z,101310.66
2023-01-29T10:52:00.553Z,101318.59
2023-01-29T10:55:23.554Z,101309.34
2023-01-29T10:58:46.789Z,101310.38
2023-01-29T11:01:48.904Z,101309.84
2023-01-29T11:04:50.679Z,101308.31
2023-01-29T11:08:05.363Z,101310.75
2023-01-29T11:11:18.930Z,101307.69
2023-01-29T11:14:42.821Z,101294.09
2023-01-29T11:18:15.400Z,101280.94
2023-01-29T11:21:17.510Z,101273.63
2023-01-29T11:24:19.348Z,101266.44
2023-01-29T11:27:26.536Z,101276.84
2023-01-29T11:30:34.266Z,101267.22
2023-01-29T11:33:36.181Z,101263.63
2023-01-29T11:36:39.282Z,101269.56
2023-01-29T11:39:47.218Z,101259.00
2023-01-29T11:42:49.936Z,101246.16
2023-01-29T11:45:56.438Z,101246.28
2023-01-29T11:48:59.274Z,101248.44
2023-01-29T11:52:10.622Z,101241.41
2023-01-29T11:55:19.716Z,101244.63
2023-01-29T11:58:32.852Z,101238.44
2023-01-29T12:01:38.616Z,101243.22
2023-01-29T12:04:41.656Z,101234.47
2023-01-29T12:07:45.740Z,101221.00
2023-01-29T12:10:48.155Z,101209.94
2023-01-29T12:13:54.970Z,101207.88
2023-01-29T12:17:05.608Z,101199.56
2023-01-29T12:20:16.734Z,101201.62
2023-01-29T12:23:48.497Z,101182.59
2023-01-29T12:27:13.182Z,101188.12
2023-01-29T12:31:01.428Z,101186.97
2023-01-29T12:34:17.564Z,101183.22
2023-01-29T12:37:25.901Z,101190.25
2023-01-29T12:40:51.728Z,101193.66
2023-01-29T12:43:58.062Z,101197.09
2023-01-29T12:47:03.311Z,101189.78
2023-01-29T12:50:32.652Z,101203.53
2023-01-29T12:53:43.571Z,101192.47
2023-01-29T12:56:53.899Z,101197.62
2023-01-29T13:00:02.743Z,101203.03
2023-01-29T13:03:17.159Z,101201.47
2023-01-29T13:06:31.524Z,101198.75
2023-01-29T13:09:37.587Z,101193.13
2023-01-29T13:12:43.601Z,101186.47
2023-01-29T13:15:47.346Z,101179.78
2023-01-29T13:19:00.634Z,101187.47
2023-01-29T13:22:07.216Z,101180.19
2023-01-29T13:25:17.958Z,101175.94
2023-01-29T13:28:23.824Z,101173.22
2023-01-29T13:31:38.105Z,101163.59
2023-01-29T13:34:49.183Z,101156.41
2023-01-29T13:37:55.440Z,101153.44
2023-01-29T13:41:03.400Z,101156.16
2023-01-29T13:44:08.804Z,101149.22
2023-01-29T13:47:22.517Z,101153.19
2023-01-29T13:50:39.854Z,101153.44
2023-01-29T13:53:43.550Z,101145.13
2023-01-29T13:56:59.190Z,101142.16
2023-01-29T14:00:01.281Z,101143.16
2023-01-29T14:03:08.646Z,101141.13
2023-01-29T14:06:10.509Z,101130.34
2023-01-29T14:09:31.049Z,101131.38
2023-01-29T14:12:37.693Z,101128.59
2023-01-29T14:15:40.253Z,101131.41
2023-01-29T14:18:56.731Z,101138.06
2023-01-29T14:21:59.155Z,101138.44
2023-01-29T14:25:05.439Z,101143.56
2023-01-29T14:28:19.354Z,101142.16
2023-01-29T14:31:50.914Z,101141.00
2023-01-29T14:35:19.876Z,101146.78
2023-01-29T14:38:25.190Z,101155.34
2023-01-29T14:41:33.696Z,101155.91
2023-01-29T14:44:45.218Z,101156.50
2023-01-29T14:47:48.238Z,101151.91
2023-01-29T14:50:56.038Z,101154.31
2023-01-29T14:54:19.008Z,101158.44
2023-01-29T14:57:21.124Z,101154.31
2023-01-29T15:00:27.939Z,101148.78
2023-01-29T15:03:40.005Z,101156.72
2023-01-29T15:06:54.468Z,101157.03
2023-01-29T15:10:22.660Z,101155.31
2023-01-29T15:13:37.871Z,101163.53
2023-01-29T15:16:48.768Z,101154.91
2023-01-29T15:19:50.951Z,101156.34
2023-01-29T15:22:53.059Z,101156.91
2023-01-29T15:26:02.147Z,101152.41
2023-01-29T15:29:06.064Z,101149.22
2023-01-29T15:32:11.269Z,101146.53
2023-01-29T15:35:28.612Z,101142.53
2023-01-29T15:38:31.023Z,101147.00
2023-01-29T15:41:33.341Z,101147.94
2023-01-29T15:44:35.608Z,101152.91
2023-01-29T15:47:37.803Z,101152.91
2023-01-29T15:50:42.112Z,101147.78
2023-01-29T15:53:58.885Z,101150.34
2023-01-29T15:57:02.159Z,101145.44
2023-01-29T16:00:06.998Z,101153.97
2023-01-29T16:03:16.561Z,101151.63
2023-01-29T16:06:19.747Z,101155.47
2023-01-29T16:09:25.381Z,101151.91
2023-01-29T16:12:29.175Z,101151.53
2023-01-29T16:15:37.038Z,101148.78
2023-01-29T16:18:54.203Z,101149.78
2023-01-29T16:22:06.388Z,101153.66
2023-01-29T16:25:15.289Z,101161.47
2023-01-29T16:28:19.018Z,101160.44
2023-01-29T16:31:28.828Z,101165.66
2023-01-29T16:34:44.672Z,101170.00
2023-01-29T16:37:52.855Z,101172.44
2023-01-29T16:41:22.743Z,101172.00
2023-01-29T16:44:46.215Z,101166.19
2023-01-29T16:48:02.179Z,101179.34
2023-01-29T16:51:07.909Z,101193.94
2023-01-29T16:54:18.626Z,101197.56
2023-01-29T16:57:25.964Z,101200.50
2023-01-29T17:00:32.329Z,101195.09
2023-01-29T17:03:40.877Z,101196.97
2023-01-29T17:06:47.821Z,101198.84
2023-01-29T17:09:54.747Z,101201.47
2023-01-29T17:12:57.183Z,101202.72
2023-01-29T17:16:17.028Z,101196.97
2023-01-29T17:19:22.079Z,101208.47
2023-01-29T17:22:25.154Z,101201.00
2023-01-29T17:25:29.332Z,101191.38
2023-01-29T17:28:32.267Z,101197.66
2023-01-29T17:31:35.285Z,101190.97
2023-01-29T17:34:37.836Z,101194.13
2023-01-29T17:37:42.095Z,101183.81
2023-01-29T17:41:19.532Z,101185.56
2023-01-29T17:44:22.780Z,101178.31
2023-01-29T17:47:25.683Z,101183.63
2023-01-29T17:50:32.563Z,101178.28
2023-01-29T17:53:45.598Z,101182.41
2023-01-29T17:56:51.633Z,101170.59
2023-01-29T17:59:54.284Z,101170.62
2023-01-29T18:02:58.514Z,101159.41
2023-01-29T18:06:01.036Z,101147.41
2023-01-29T18:09:05.060Z,101142.88
2023-01-29T18:12:11.667Z,101139.31
2023-01-29T18:15:14.595Z,101139.28
2023-01-29T18:18:23.238Z,101135.25
2023-01-29T18:21:25.627Z,101142.28
2023-01-29T18:24:28.152Z,101124.87
2023-01-29T18:27:30.667Z,101125.03
2023-01-29T18:30:34.520Z,101123.38
2023-01-29T18:33:38.223Z,101136.16
2023-01-29T18:36:41.690Z,101132.88
2023-01-29T18:39:44.276Z,101130.31
2023-01-29T18:42:47.544Z,101127.03
2023-01-29T18:45:50.352Z,101127.25
2023-01-29T18:48:53.352Z,101119.88
2023-01-29T18:51:56.295Z,101124.41
2023-01-29T18:54:58.976Z,101129.81
2023-01-29T18:58:26.146Z,101124.75
2023-01-29T19:01:29.009Z,101127.56
2023-01-29T19:04:31.471Z,101128.03
2023-01-29T19:07:35.526Z,101127.28
2023-01-29T19:10:44.196Z,101134.22
2023-01-29T19:13:48.541Z,101128.19
2023-01-29T19:16:52.360Z,101131.94
2023-01-29T19:19:56.897Z,101130.88
2023-01-29T19:23:04.074Z,101131.94
2023-01-29T19:26:09.042Z,101132.56
2023-01-29T19:29:12.043Z,101127.12
2023-01-29T19:32:15.664Z,101130.62
2023-01-29T19:35:19.744Z,101135.25
2023-01-29T19:38:22.993Z,101125.47
2023-01-29T19:41:25.871Z,101133.31
2023-01-29T19:44:30.714Z,101131.03
2023-01-29T19:47:42.290Z,101134.81
2023-01-29T19:50:52.092Z,101133.91
2023-01-29T19:53:55.886Z,101129.56
2023-01-29T19:56:58.718Z,101129.22
2023-01-29T20:00:01.709Z,101121.47
2023-01-29T20:03:05.023Z,101121.00
2023-01-29T20:06:14.288Z,101122.59
2023-01-29T20:09:18.130Z,101121.56
2023-01-29T20:12:21.040Z,101116.06
2023-01-29T20:15:23.480Z,101111.87
2023-01-29T20:18:28.338Z,101113.97
2023-01-29T20:21:32.322Z,101109.94
2023-01-29T20:24:40.574Z,101101.06
2023-01-29T20:27:44.615Z,101095.50
2023-01-29T20:30:48.491Z,101093.12
2023-01-29T20:33:51.839Z,101086.06
2023-01-29T20:36:54.784Z,101077.81
2023-01-29T20:39:57.647Z,101073.59
2023-01-29T20:43:00.396Z,101084.44
2023-01-29T20:46:04.531Z,101083.97
2023-01-29T20:49:09.608Z,101092.69
2023-01-29T20:52:13.211Z,101089.53
2023-01-29T20:55:19.562Z,101085.78
2023-01-29T20:58:25.223Z,101099.41
2023-01-29T21:01:28.046Z,101102.03
2023-01-29T21:04:31.610Z,101107.97
2023-01-29T21:07:35.391Z,101109.94
2023-01-29T21:10:39.496Z,101115.19
2023-01-29T21:13:44.112Z,101117.12
2023-01-29T21:16:47.928Z,101114.44
2023-01-29T21:19:50.760Z,101121.63
2023-01-29T21:22:55.773Z,101122.69
2023-01-29T21:26:05.974Z,101117.91
2023-01-29T21:29:08.337Z,101125.09
2023-01-29T21:32:11.958Z,101123.75
2023-01-29T21:35:17.416Z,101128.25
2023-01-29T21:38:20.560Z,101127.59
2023-01-29T21:41:43.437Z,101135.84
2023-01-29T21:44:47.616Z,101134.22
2023-01-29T21:47:55.377Z,101134.06
2023-01-29T21:50:57.761Z,101133.03
2023-01-29T21:53:59.668Z,101128.53
2023-01-29T21:57:04.860Z,101115.19
2023-01-29T22:00:16.171Z,101119.38
2023-01-29T22:03:20.191Z,101114.13
2023-01-29T22:06:29.911Z,101108.44
2023-01-29T22:09:35.483Z,101105.59
2023-01-29T22:12:44.563Z,101111.13
2023-01-29T22:15:47.628Z,101102.13
2023-01-29T22:18:58.744Z,101097.94
2023-01-29T22:22:10.106Z,101086.38
2023-01-29T22:25:20.933Z,101076.34
2023-01-29T22:28:24.809Z,101075.25
2023-01-29T22:31:28.760Z,101063.09
2023-01-29T22:34:36.057Z,101060.13
2023-01-29T22:37:37.751Z,101062.06
2023-01-29T22:40:40.623Z,101059.97
2023-01-29T22:43:44.020Z,101056.97
2023-01-29T22:46:45.928Z,101057.72
2023-01-29T22:49:50.098Z,101043.91
2023-01-29T22:52:53.604Z,101044.81
2023-01-29T22:55:55.752Z,101051.41
2023-01-29T22:58:59.329Z,101056.81
2023-01-29T23:02:02.015Z,101058.16
2023-01-29T23:05:04.419Z,101060.56
2023-01-29T23:08:06.440Z,101046.00
2023-01-29T23:11:14.717Z,101049.12
2023-01-29T23:14:16.848Z,101055.13
2023-01-29T23:17:18.553Z,101050.94
2023-01-29T23:20:21.819Z,101047.16
2023-01-29T23:23:23.574Z,101052.03
2023-01-29T23:26:44.402Z,101046.03
2023-01-29T23:29:48.601Z,101049.91
2023-01-29T23:32:51.356Z,101052.44
2023-01-29T23:35:54.083Z,101037.78
2023-01-29T23:38:55.827Z,101030.88
2023-01-29T23:41:58.723Z,101020.09
2023-01-29T23:45:00.489Z,101016.81
2023-01-29T23:48:02.158Z,101014.38
2023-01-29T23:51:04.249Z,101020.81
2023-01-29T23:54:06.935Z,101010.81
2023-01-29T23:57:08.696Z,101003.56
